Flight Track Log - Related Links

Times and Time Zones

All times are in EDT time to prevent confusion due to time zone crossing. See the SAS2686 flight status page for this flight to view local times or setup timezone preferences in your user account.

Time Position Orientation Groundspeed Altitude Reporting Facility
EDT Latitude Longitude Course Direction KTS MPH feet Rate Location/Type
Wed 02:23:00 PM 44.8852 11.3247 North  Level Estimated
Wed 02:24:00 PM 45.0019 11.3363 North  Level Estimated
Wed 02:25:00 PM 45.1186 11.3480 North  Level Estimated
Wed 02:26:00 PM 45.2354 11.3597 North  Level Estimated
Wed 02:27:00 PM 45.3521 11.3715 North  Level Estimated
Wed 02:28:00 PM 45.4688 11.3833 North  Level Estimated
Wed 02:29:00 PM 45.5856 11.3952 North  Level Estimated
Wed 02:30:00 PM 45.7023 11.4071 North  Level Estimated
Wed 02:31:00 PM 45.8190 11.4191 North  Level Estimated
Wed 02:32:00 PM 45.9358 11.4311 North  Level Estimated
Wed 02:33:00 PM 46.0525 11.4432 North  Level Estimated
Wed 02:34:00 PM 46.1692 11.4553 North  Level Estimated
Wed 02:35:00 PM 46.2860 11.4675 North  Level Estimated
Wed 02:36:00 PM 46.4027 11.4797 North  Level Estimated
Wed 02:37:00 PM 46.5194 11.4920 North  Level Estimated
Wed 02:38:00 PM 46.6362 11.5043 North  Level Estimated
Wed 02:39:00 PM 46.7529 11.5167 North  Level Estimated
Wed 02:40:00 PM 46.8696 11.5291 North  Level Estimated
Wed 02:41:00 PM 46.9863 11.5416 North  Level Estimated
Wed 02:42:00 PM 47.1030 11.5541 North  Level Estimated
Wed 02:43:00 PM 47.2197 11.5667 North  Level Estimated
Wed 02:44:00 PM 47.3365 11.5794 North  Level Estimated
Wed 02:45:00 PM 47.4532 11.5921 North  Level Estimated
Wed 02:46:00 PM 47.5699 11.6048 North  Level Estimated
Wed 02:47:00 PM 47.6866 11.6177 North  Level Estimated
Wed 02:48:00 PM 47.8033 11.6306 North  Level Estimated
Wed 02:49:00 PM 47.9200 11.6435 North  Level Estimated
Wed 02:50:00 PM 48.0367 11.6565 North  Level Estimated
Wed 02:51:00 PM 48.1534 11.6695 North  Level Estimated
Wed 02:52:00 PM 48.2701 11.6827 North  Level Estimated
Wed 02:53:00 PM 48.3868 11.6958 North  Level Estimated
Wed 02:54:00 PM 48.5035 11.7091 North  Level Estimated
Wed 02:55:00 PM 48.6202 11.7224 North  Level Estimated
Wed 02:56:00 PM 48.7369 11.7357 North  Level Estimated
Wed 02:57:00 PM 48.8536 11.7492 North  Level Estimated
Wed 02:58:00 PM 48.9703 11.7626 North  Level Estimated
Wed 02:59:00 PM 49.0870 11.7762 North  Level Estimated
Wed 03:00:00 PM 49.2037 11.7898 North  Level Estimated
Wed 03:01:00 PM 49.3204 11.8035 North  Level Estimated
Wed 03:02:00 PM 49.4371 11.8172 North  Level Estimated
Wed 03:03:00 PM 49.5538 11.8310 North  Level Estimated
Wed 03:04:00 PM 49.6705 11.8449 North  Level Estimated
Wed 03:05:00 PM 49.7872 11.8588 North  Level Estimated
Wed 03:06:00 PM 49.9038 11.8728 North  Level Estimated
Wed 03:07:00 PM 50.0205 11.8869 North  Level Estimated
Wed 03:08:00 PM 50.1372 11.9010 North  Level Estimated
Wed 03:09:00 PM 50.2539 11.9152 North  Level Estimated
Wed 03:10:00 PM 50.3706 11.9295 North  Level Estimated
Wed 03:11:00 PM 50.4872 11.9439 North  Level Estimated
Wed 03:12:00 PM 50.6039 11.9583 North  Level Estimated
Wed 03:13:00 PM 50.7206 11.9728 North  Level Estimated
Wed 03:14:00 PM 50.8372 11.9873 North  Level Estimated
Wed 03:15:00 PM 50.9539 12.0020 North  Level Estimated
Wed 03:16:00 PM 51.0706 12.0167 North  Level Estimated
Wed 03:17:00 PM 51.1872 12.0315 North  Level Estimated
Wed 03:18:00 PM 51.3039 12.0463 North  Level Estimated
Wed 03:19:00 PM 51.4206 12.0613 North  Level Estimated
Wed 03:20:00 PM 51.5372 12.0763 North  Level Estimated
Wed 03:21:00 PM 51.6539 12.0914 North  Level Estimated
Wed 03:22:00 PM 51.7705 12.1066 North  Level Estimated
Wed 03:23:00 PM 51.8872 12.1218 North  Level Estimated
Wed 03:24:00 PM 52.0038 12.1371 North  Level Estimated
Wed 03:25:00 PM 52.1205 12.1525 North  Level Estimated
Wed 03:26:00 PM 52.2371 12.1680 North  Level Estimated
Wed 03:27:00 PM 52.3538 12.1836 North  Level Estimated
Wed 03:28:00 PM 52.4704 12.1993 North  Level Estimated
Wed 03:29:00 PM 52.5870 12.2150 North  Level Estimated
Wed 03:30:00 PM 52.7037 12.2308 North  Level Estimated
Wed 03:31:00 PM 52.8203 12.2467 North  Level Estimated
Wed 03:32:00 PM 52.9369 12.2627 North  Level Estimated
Wed 03:33:00 PM 53.0536 12.2788 North  Level Estimated
Wed 03:34:00 PM 53.1702 12.2949 North  Level Estimated
Wed 03:35:00 PM 53.2868 12.3112 North  Level Estimated
Wed 03:36:00 PM 53.4035 12.3275 North  Level Estimated
Wed 03:37:00 PM 53.5201 12.3440 North  Level Estimated
Wed 03:38:00 PM 53.6367 12.3605 North  Level Estimated
Wed 03:39:00 PM 53.7533 12.3771 North  Level Estimated
Wed 03:40:00 PM 53.8699 12.3938 North  Level Estimated
Wed 03:41:00 PM 53.9865 12.4106 North  Level Estimated
Wed 03:42:00 PM 54.1031 12.4275 North  Level Estimated
Wed 03:43:00 PM 54.2197 12.4445 North  Level Estimated
Wed 03:44:00 PM 54.3364 12.4615 North  Level Estimated
Wed 03:45:00 PM 54.4530 12.4787 North  Level Estimated
Wed 03:46:00 PM 54.5696 12.4960 North  Level Estimated
Wed 03:47:00 PM 54.6862 12.5134 North  Level Estimated
Wed 03:48:00 PM 54.8028 12.5309 North  Level Estimated
Wed 03:49:00 PM 54.9193 12.5485 North  Level Estimated
Wed 03:50:00 PM 55.0359 12.5661 North  Level Estimated
Wed 03:51:00 PM 55.1525 12.5839 North  Level Estimated
Wed 03:52:00 PM 55.2691 12.6018 North  Level Estimated
Wed 03:53:00 PM 55.3857 12.6198 North  Level Estimated
Wed 03:54:00 PM 55.5023 12.6379 North  Level Estimated
Wed 03:55:00 PM 55.6179 12.6560 North  Level Estimated
Wed 03:56:00 PM 55.6179 12.6560 159° South  Level Estimated
Wed 03:57:00 PM 55.6179 12.6560 159° South  Level Estimated
Wed 03:58:00 PM 55.6179 12.6560 159° South  Level Estimated
Wed 03:59:00 PM 55.6179 12.6560 159° South  Level Estimated
Wed 04:00:00 PM 55.6179 12.6560 159° South  Level Estimated
Wed 04:01:00 PM 55.6179 12.6560 159° South  Level Estimated
Wed 04:02:00 PM 55.6179 12.6560 159° South  Level Estimated
Wed 04:03:00 PM 55.6179 12.6560 159° South  Level Estimated
Wed 04:04:00 PM 55.6179 12.6560 159° South  Level Estimated
Wed 04:05:00 PM 55.6179 12.6560 159° South  Level Estimated
Wed 04:06:00 PM 55.6179 12.6560 159° South  Level Estimated
Wed 04:07:00 PM 55.6179 12.6560 159° South  Level Estimated
Wed 04:08:00 PM 55.6179 12.6560 159° South  Level Estimated
Wed 04:09:00 PM 55.6179 12.6560 159° South  Level Estimated
Wed 04:10:00 PM 55.6179 12.6560 159° South  Level Estimated
Wed 04:11:00 PM 55.6179 12.6560 159° South  Level Estimated

Login

Don't have an account? Register now (free) for customized features, flight alerts, and more!